createdAt,value
2022-12-19T00:00:41.276Z,24.19
2022-12-19T00:03:31.382Z,24.08
2022-12-19T00:06:21.171Z,24.02
2022-12-19T00:09:09.762Z,23.97
2022-12-19T00:11:58.369Z,23.93
2022-12-19T00:14:47.008Z,23.90
2022-12-19T00:17:35.614Z,23.88
2022-12-19T00:20:27.338Z,23.83
2022-12-19T00:23:15.982Z,23.79
2022-12-19T00:26:13.765Z,23.80
2022-12-19T00:29:03.621Z,23.75
2022-12-19T00:31:52.346Z,23.76
2022-12-19T00:34:41.076Z,23.73
2022-12-19T00:37:31.060Z,23.69
2022-12-19T00:40:19.818Z,23.71
2022-12-19T00:43:08.414Z,23.67
2022-12-19T00:45:57.040Z,23.67
2022-12-19T00:48:45.749Z,23.67
2022-12-19T00:51:35.594Z,23.67
2022-12-19T00:54:25.792Z,23.71
2022-12-19T00:57:14.681Z,23.67
2022-12-19T01:00:03.357Z,23.65
2022-12-19T01:02:52.033Z,23.61
2022-12-19T01:05:42.041Z,23.60
2022-12-19T01:08:30.908Z,23.64
2022-12-19T01:11:41.728Z,23.59
2022-12-19T01:14:29.454Z,23.55
2022-12-19T01:17:18.084Z,23.58
2022-12-19T01:20:07.645Z,23.56
2022-12-19T01:22:56.270Z,23.50
2022-12-19T01:25:50.830Z,23.47
2022-12-19T01:28:41.222Z,23.46
2022-12-19T01:31:29.855Z,23.42
2022-12-19T01:34:18.515Z,23.42
2022-12-19T01:37:07.074Z,23.38
2022-12-19T01:39:55.700Z,23.37
2022-12-19T01:42:44.287Z,23.39
2022-12-19T01:45:37.418Z,23.35
2022-12-19T01:48:32.628Z,23.36
2022-12-19T01:51:23.698Z,23.36
2022-12-19T01:54:16.483Z,23.33
2022-12-19T01:57:08.801Z,23.33
2022-12-19T02:00:00.394Z,23.31
2022-12-19T02:02:55.402Z,23.31
2022-12-19T02:05:45.649Z,23.30
2022-12-19T02:08:34.872Z,23.30
2022-12-19T02:11:23.714Z,23.28
2022-12-19T02:14:12.384Z,23.33
2022-12-19T02:17:06.785Z,23.28
2022-12-19T02:20:22.700Z,23.33
2022-12-19T02:23:27.478Z,23.30
2022-12-19T02:26:32.339Z,23.34
2022-12-19T02:29:52.111Z,23.38
2022-12-19T02:32:50.375Z,23.29
2022-12-19T02:35:43.504Z,23.27
2022-12-19T02:38:34.180Z,23.28
2022-12-19T02:41:25.146Z,23.26
2022-12-19T02:44:17.549Z,23.25
2022-12-19T02:47:07.575Z,23.23
2022-12-19T02:49:58.243Z,23.24
2022-12-19T02:52:48.725Z,23.25
2022-12-19T02:55:43.303Z,23.22
2022-12-19T02:58:47.902Z,23.23
2022-12-19T03:01:43.207Z,23.21
2022-12-19T03:04:37.848Z,23.21
2022-12-19T03:07:32.099Z,23.19
2022-12-19T03:10:26.267Z,23.16
2022-12-19T03:13:18.542Z,23.15
2022-12-19T03:16:10.463Z,23.15
2022-12-19T03:18:59.333Z,23.14
2022-12-19T03:21:52.835Z,23.14
2022-12-19T03:24:42.991Z,23.13
2022-12-19T03:27:35.083Z,23.15
2022-12-19T03:30:23.886Z,23.16
2022-12-19T03:33:13.842Z,23.16
2022-12-19T03:36:06.676Z,23.13
2022-12-19T03:38:56.448Z,23.13
2022-12-19T03:42:04.397Z,23.13
2022-12-19T03:44:53.398Z,23.15
2022-12-19T03:47:43.912Z,23.12
2022-12-19T03:50:34.505Z,23.10
2022-12-19T03:53:34.342Z,23.11
2022-12-19T03:56:28.626Z,23.11
2022-12-19T03:59:22.052Z,23.10
2022-12-19T04:02:11.689Z,23.10
2022-12-19T04:05:03.041Z,23.11
2022-12-19T04:07:53.550Z,23.08
2022-12-19T04:10:49.249Z,23.12
2022-12-19T04:13:40.056Z,23.11
2022-12-19T04:16:33.796Z,23.09
2022-12-19T04:19:25.689Z,23.09
2022-12-19T04:22:18.074Z,23.08
2022-12-19T04:25:09.001Z,23.07
2022-12-19T04:28:02.946Z,23.06
2022-12-19T04:30:51.749Z,23.11
2022-12-19T04:33:41.761Z,23.10
2022-12-19T04:36:30.358Z,23.09
2022-12-19T04:39:18.987Z,23.10
2022-12-19T04:42:07.764Z,23.06
2022-12-19T04:44:56.464Z,23.05
2022-12-19T04:47:45.228Z,23.11
2022-12-19T04:50:36.415Z,23.13
2022-12-19T04:53:25.687Z,23.10
2022-12-19T04:56:14.426Z,23.13
2022-12-19T04:59:03.072Z,23.10
2022-12-19T05:01:51.753Z,23.08
2022-12-19T05:04:40.710Z,23.10
2022-12-19T05:07:30.741Z,23.14
2022-12-19T05:10:19.887Z,23.11
2022-12-19T05:13:09.154Z,23.10
2022-12-19T05:15:59.168Z,23.10
2022-12-19T05:18:48.165Z,23.11
2022-12-19T05:21:36.756Z,23.08
2022-12-19T05:24:26.763Z,23.06
2022-12-19T05:27:15.396Z,23.03
2022-12-19T05:30:04.039Z,23.02
2022-12-19T05:32:52.742Z,23.03
2022-12-19T05:35:41.631Z,23.09
2022-12-19T05:38:30.799Z,23.06
2022-12-19T05:41:22.068Z,23.04
2022-12-19T05:44:11.430Z,23.06
2022-12-19T05:47:00.174Z,23.05
2022-12-19T05:49:48.865Z,23.01
2022-12-19T05:52:38.153Z,23.03
2022-12-19T05:55:26.986Z,23.00
2022-12-19T05:58:16.917Z,22.98
2022-12-19T06:01:06.135Z,22.97
2022-12-19T06:03:55.837Z,22.94
2022-12-19T06:06:44.599Z,22.93
2022-12-19T06:09:33.223Z,22.94
2022-12-19T06:12:21.874Z,22.93
2022-12-19T06:15:12.813Z,22.93
2022-12-19T06:18:01.507Z,22.91
2022-12-19T06:20:57.830Z,22.91
2022-12-19T06:23:46.925Z,22.90
2022-12-19T06:26:35.544Z,22.91
2022-12-19T06:29:24.212Z,22.91
2022-12-19T06:32:14.841Z,22.93
2022-12-19T06:35:04.638Z,22.90
2022-12-19T06:37:59.334Z,22.89
2022-12-19T06:41:07.437Z,22.91
2022-12-19T06:43:59.443Z,22.90
2022-12-19T06:46:49.359Z,22.93
2022-12-19T06:49:39.398Z,22.92
2022-12-19T06:52:28.212Z,22.89
2022-12-19T06:55:17.449Z,22.92
2022-12-19T06:58:06.156Z,22.90
2022-12-19T07:00:55.067Z,22.92
2022-12-19T07:03:43.737Z,22.91
2022-12-19T07:06:33.679Z,22.92
2022-12-19T07:09:22.665Z,22.93
2022-12-19T07:12:11.389Z,22.91
2022-12-19T07:15:00.069Z,22.87
2022-12-19T07:17:48.896Z,22.87
2022-12-19T07:20:44.832Z,22.92
2022-12-19T07:23:36.237Z,22.89
2022-12-19T07:26:25.059Z,22.91
2022-12-19T07:29:14.260Z,22.92
2022-12-19T07:32:03.022Z,22.88
2022-12-19T07:34:54.963Z,22.87
2022-12-19T07:37:43.754Z,22.90
2022-12-19T07:40:34.124Z,22.97
2022-12-19T07:43:22.848Z,22.96
2022-12-19T07:46:17.642Z,23.18
2022-12-19T07:49:06.672Z,23.52
2022-12-19T07:52:11.406Z,23.84
2022-12-19T07:55:05.556Z,23.95
2022-12-19T07:57:57.663Z,24.00
2022-12-19T08:00:46.361Z,24.10
2022-12-19T08:03:35.933Z,24.09
2022-12-19T08:06:24.724Z,24.00
2022-12-19T08:09:13.919Z,23.99
2022-12-19T08:12:02.628Z,24.02
2022-12-19T08:14:56.957Z,23.73
2022-12-19T08:17:46.259Z,23.76
2022-12-19T08:20:35.122Z,23.74
2022-12-19T08:23:23.795Z,23.47
2022-12-19T08:26:14.206Z,23.27
2022-12-19T08:29:02.895Z,23.17
2022-12-19T08:31:54.179Z,23.13
2022-12-19T08:34:42.866Z,23.15
2022-12-19T08:37:31.484Z,23.08
2022-12-19T08:40:20.090Z,23.04
2022-12-19T08:43:08.749Z,23.21
2022-12-19T08:45:57.622Z,23.10
2022-12-19T08:48:47.793Z,23.41
2022-12-19T08:51:36.612Z,23.61
2022-12-19T08:54:25.255Z,23.76
2022-12-19T08:57:13.894Z,23.91
2022-12-19T09:00:02.579Z,23.93
2022-12-19T09:02:54.389Z,23.64
2022-12-19T09:05:59.966Z,23.56
2022-12-19T09:08:54.619Z,23.42
2022-12-19T09:11:49.121Z,23.19
2022-12-19T09:14:38.120Z,23.21
2022-12-19T09:17:26.705Z,23.16
2022-12-19T09:20:21.253Z,23.11
2022-12-19T09:23:13.199Z,23.08
2022-12-19T09:26:04.576Z,23.07
2022-12-19T09:28:53.759Z,23.19
2022-12-19T09:31:42.363Z,23.19
2022-12-19T09:34:37.579Z,23.20
2022-12-19T09:37:27.523Z,23.26
2022-12-19T09:40:19.022Z,23.28
2022-12-19T09:43:11.892Z,23.31
2022-12-19T09:46:05.772Z,23.35
2022-12-19T09:48:56.329Z,23.41
2022-12-19T09:51:50.021Z,23.39
2022-12-19T09:54:41.328Z,23.59
2022-12-19T09:57:39.152Z,23.60
2022-12-19T10:00:36.519Z,23.53
2022-12-19T10:03:28.311Z,23.44
2022-12-19T10:07:11.442Z,23.40
2022-12-19T10:11:44.971Z,23.47
2022-12-19T10:12:59.499Z,23.34
2022-12-19T10:15:59.068Z,23.29
2022-12-19T10:18:56.870Z,23.43
2022-12-19T10:22:17.264Z,23.41
2022-12-19T10:25:12.078Z,23.38
2022-12-19T10:28:10.191Z,23.33
2022-12-19T10:31:14.090Z,23.21
2022-12-19T10:34:16.523Z,23.22
2022-12-19T10:37:27.630Z,23.17
2022-12-19T10:40:28.537Z,23.18
2022-12-19T10:43:32.857Z,23.14
2022-12-19T10:46:31.317Z,23.12
2022-12-19T10:49:21.978Z,23.14
2022-12-19T10:52:11.910Z,23.14
2022-12-19T10:55:00.491Z,23.13
2022-12-19T10:57:49.730Z,23.13
2022-12-19T11:00:39.816Z,23.14
2022-12-19T11:03:29.067Z,23.22
2022-12-19T11:06:44.859Z,23.16
2022-12-19T11:09:37.141Z,23.12
2022-12-19T11:16:43.328Z,23.11
2022-12-19T11:20:33.033Z,23.09
2022-12-19T11:29:16.006Z,23.08
2022-12-19T11:29:27.192Z,23.09
2022-12-19T11:29:34.918Z,23.10
2022-12-19T11:30:09.515Z,23.23
2022-12-19T11:34:50.941Z,23.11
2022-12-19T11:37:42.657Z,23.14
2022-12-19T11:40:34.882Z,23.14
2022-12-19T11:43:45.757Z,23.22
2022-12-19T11:46:41.631Z,23.17
2022-12-19T11:49:33.886Z,23.14
2022-12-19T11:53:03.419Z,23.20
2022-12-19T11:55:45.786Z,23.19
2022-12-19T11:58:34.589Z,23.24
2022-12-19T12:01:36.862Z,23.57
2022-12-19T12:04:42.370Z,23.33
2022-12-19T12:08:38.053Z,23.42
2022-12-19T12:14:59.192Z,23.38
2022-12-19T12:24:44.300Z,23.43
2022-12-19T12:31:08.392Z,23.26
2022-12-19T12:31:14.620Z,23.27
2022-12-19T12:31:46.438Z,23.23
2022-12-19T12:31:50.785Z,23.22
2022-12-19T12:31:53.906Z,23.20
2022-12-19T12:35:33.128Z,23.25
2022-12-19T12:40:55.778Z,23.25
2022-12-19T12:43:51.211Z,23.24
2022-12-19T12:46:42.268Z,23.22
2022-12-19T12:49:36.883Z,23.27
2022-12-19T12:52:31.311Z,23.24
2022-12-19T12:55:25.589Z,23.21
2022-12-19T12:59:04.188Z,23.42
2022-12-19T13:01:55.286Z,23.44
2022-12-19T13:04:50.710Z,23.66
2022-12-19T13:07:44.286Z,23.57
2022-12-19T13:10:33.572Z,23.60
2022-12-19T13:13:25.885Z,23.50
2022-12-19T13:16:47.392Z,23.74
2022-12-19T13:19:39.201Z,24.01
2022-12-19T13:22:41.925Z,24.11
2022-12-19T13:25:49.548Z,24.26
2022-12-19T13:28:42.189Z,23.96
2022-12-19T13:31:37.219Z,24.16
2022-12-19T13:34:37.068Z,24.28
2022-12-19T13:39:49.599Z,24.47
2022-12-19T13:40:58.523Z,24.58
2022-12-19T13:43:49.611Z,24.65
2022-12-19T13:46:41.505Z,24.70
2022-12-19T13:49:35.048Z,24.66
2022-12-19T13:52:25.208Z,24.66
2022-12-19T13:55:15.580Z,24.69
2022-12-19T13:58:05.771Z,24.72
2022-12-19T14:00:57.037Z,24.69
2022-12-19T14:03:47.111Z,24.75
2022-12-19T14:06:44.544Z,24.88
2022-12-19T14:11:30.189Z,24.97
2022-12-19T14:13:59.391Z,25.00
2022-12-19T14:16:17.375Z,25.01
2022-12-19T14:19:06.232Z,24.93
2022-12-19T14:22:11.569Z,24.85
2022-12-19T14:25:45.107Z,24.98
2022-12-19T14:28:29.465Z,24.92
2022-12-19T14:31:19.867Z,24.78
2022-12-19T14:34:47.202Z,25.00
2022-12-19T14:38:03.081Z,25.03
2022-12-19T14:41:07.470Z,24.99
2022-12-19T14:44:00.276Z,24.91
2022-12-19T14:54:05.915Z,24.47
2022-12-19T14:54:28.610Z,24.13
2022-12-19T14:54:48.234Z,23.94
2022-12-19T14:56:59.821Z,24.12
2022-12-19T14:59:49.772Z,24.52
2022-12-19T15:02:40.032Z,24.75
2022-12-19T15:05:29.057Z,25.02
2022-12-19T15:09:01.476Z,24.89
2022-12-19T15:12:10.407Z,24.32
2022-12-19T15:15:22.250Z,23.98
2022-12-19T15:18:23.984Z,24.42
2022-12-19T15:21:14.155Z,24.55
2022-12-19T15:24:02.802Z,24.65
2022-12-19T15:26:54.693Z,24.68
2022-12-19T15:29:44.297Z,24.71
2022-12-19T15:32:34.280Z,24.87
2022-12-19T15:35:23.124Z,24.91
2022-12-19T15:38:11.821Z,24.95
2022-12-19T15:41:00.427Z,24.57
2022-12-19T15:44:05.595Z,24.47
2022-12-19T15:46:55.369Z,24.42
2022-12-19T15:49:45.471Z,24.72
2022-12-19T15:52:34.112Z,24.93
2022-12-19T15:55:24.468Z,25.00
2022-12-19T15:58:14.084Z,24.85
2022-12-19T16:01:05.024Z,24.83
2022-12-19T16:03:54.538Z,24.79
2022-12-19T16:06:44.999Z,24.86
2022-12-19T16:09:34.224Z,24.91
2022-12-19T16:12:26.921Z,25.02
2022-12-19T16:15:17.702Z,24.99
2022-12-19T16:18:06.515Z,25.05
2022-12-19T16:20:55.143Z,25.06
2022-12-19T16:23:45.187Z,24.95
2022-12-19T16:26:35.880Z,25.02
2022-12-19T16:29:26.214Z,25.13
2022-12-19T16:32:15.733Z,25.15
2022-12-19T16:35:09.474Z,25.21
2022-12-19T16:37:58.621Z,25.11
2022-12-19T16:40:49.317Z,25.22
2022-12-19T16:43:40.420Z,25.34
2022-12-19T16:46:31.036Z,25.23
2022-12-19T16:49:23.956Z,25.22
2022-12-19T16:52:13.381Z,25.26
2022-12-19T16:55:02.620Z,25.17
2022-12-19T16:57:55.157Z,25.12
2022-12-19T17:00:44.989Z,25.20
2022-12-19T17:03:36.216Z,24.87
2022-12-19T17:06:26.126Z,25.01
2022-12-19T17:09:17.072Z,25.05
2022-12-19T17:12:06.518Z,25.14
2022-12-19T17:14:56.698Z,25.10
2022-12-19T17:17:45.440Z,25.12
2022-12-19T17:20:38.597Z,25.10
2022-12-19T17:23:29.010Z,25.06
2022-12-19T17:26:18.579Z,25.04
2022-12-19T17:29:07.420Z,25.02
2022-12-19T17:31:57.691Z,25.18
2022-12-19T17:34:46.478Z,25.25
2022-12-19T17:37:35.362Z,25.12
2022-12-19T17:40:27.698Z,25.14
2022-12-19T17:43:18.175Z,25.08
2022-12-19T17:46:07.407Z,25.17
2022-12-19T17:48:57.574Z,25.00
2022-12-19T17:51:48.598Z,24.67
2022-12-19T17:54:37.501Z,24.73
2022-12-19T17:57:26.858Z,24.92
2022-12-19T18:00:16.688Z,25.00
2022-12-19T18:03:11.166Z,24.96
2022-12-19T18:06:01.372Z,25.06
2022-12-19T18:08:50.050Z,25.08
2022-12-19T18:11:42.063Z,25.17
2022-12-19T18:14:30.992Z,25.13
2022-12-19T18:17:24.475Z,25.09
2022-12-19T18:20:31.572Z,24.80
2022-12-19T18:23:24.764Z,24.53
2022-12-19T18:26:13.894Z,24.39
2022-12-19T18:29:02.610Z,24.37
2022-12-19T18:31:51.527Z,24.36
2022-12-19T18:34:40.689Z,24.26
2022-12-19T18:37:29.577Z,24.20
2022-12-19T18:40:27.537Z,24.25
2022-12-19T18:43:20.281Z,24.49
2022-12-19T18:46:11.579Z,24.79
2022-12-19T18:49:00.342Z,24.93
2022-12-19T18:51:50.172Z,24.78
2022-12-19T18:54:38.981Z,24.73
2022-12-19T18:57:29.130Z,24.87
2022-12-19T19:00:20.048Z,25.09
2022-12-19T19:03:15.196Z,25.05
2022-12-19T19:06:05.435Z,25.10
2022-12-19T19:08:56.414Z,25.09
2022-12-19T19:11:45.096Z,25.14
2022-12-19T19:14:35.181Z,25.04
2022-12-19T19:17:28.903Z,25.00
2022-12-19T19:20:18.447Z,24.85
2022-12-19T19:23:10.428Z,24.81
2022-12-19T19:25:59.018Z,24.95
2022-12-19T19:28:52.171Z,24.91
2022-12-19T19:31:45.712Z,24.94
2022-12-19T19:34:37.262Z,24.74
2022-12-19T19:37:25.914Z,24.59
2022-12-19T19:40:15.530Z,24.30
2022-12-19T19:43:04.867Z,24.19
2022-12-19T19:45:53.531Z,24.08
2022-12-19T19:48:43.709Z,24.02
2022-12-19T19:51:32.388Z,23.97
2022-12-19T19:54:21.223Z,23.95
2022-12-19T19:57:09.796Z,23.95
2022-12-19T19:59:58.491Z,23.93
2022-12-19T20:02:47.422Z,23.93
2022-12-19T20:05:37.656Z,23.89
2022-12-19T20:08:26.371Z,23.90
2022-12-19T20:11:15.057Z,24.12
2022-12-19T20:14:04.559Z,24.02
2022-12-19T20:16:53.147Z,23.95
2022-12-19T20:19:41.816Z,23.90
2022-12-19T20:22:32.102Z,23.89
2022-12-19T20:25:20.678Z,23.95
2022-12-19T20:28:09.671Z,24.11
2022-12-19T20:30:58.349Z,24.32
2022-12-19T20:33:48.277Z,24.44
2022-12-19T20:36:37.183Z,24.58
2022-12-19T20:39:27.167Z,24.87
2022-12-19T20:42:15.844Z,24.95
2022-12-19T20:45:04.628Z,25.07
2022-12-19T20:47:53.235Z,25.14
2022-12-19T20:50:43.423Z,25.19
2022-12-19T20:53:32.998Z,25.21
2022-12-19T20:56:25.810Z,25.24
2022-12-19T20:59:14.470Z,25.22
2022-12-19T21:02:03.528Z,25.25
2022-12-19T21:04:52.368Z,25.29
2022-12-19T21:07:41.052Z,25.26
2022-12-19T21:10:29.638Z,25.32
2022-12-19T21:13:19.644Z,24.83
2022-12-19T21:16:10.765Z,24.45
2022-12-19T21:18:59.501Z,24.05
2022-12-19T21:21:48.321Z,24.36
2022-12-19T21:24:36.960Z,24.52
2022-12-19T21:27:26.006Z,24.48
2022-12-19T21:30:16.348Z,24.68
2022-12-19T21:33:05.807Z,24.63
2022-12-19T21:35:54.718Z,24.75
2022-12-19T21:38:43.536Z,24.88
2022-12-19T21:41:32.759Z,24.76
2022-12-19T21:44:21.598Z,24.67
2022-12-19T21:47:11.671Z,24.74
2022-12-19T21:50:00.671Z,24.22
2022-12-19T21:52:55.632Z,24.07
2022-12-19T21:55:44.507Z,23.53
2022-12-19T21:58:33.157Z,23.65
2022-12-19T22:01:22.224Z,23.05
2022-12-19T22:04:14.941Z,22.58
2022-12-19T22:07:06.106Z,22.54
2022-12-19T22:09:54.767Z,22.41
2022-12-19T22:12:43.391Z,22.43
2022-12-19T22:15:32.141Z,22.12
2022-12-19T22:18:20.768Z,21.83
2022-12-19T22:21:12.555Z,21.76
2022-12-19T22:24:02.236Z,21.78
2022-12-19T22:26:50.851Z,21.91
2022-12-19T22:29:39.664Z,21.44
2022-12-19T22:32:28.310Z,21.37
2022-12-19T22:35:16.965Z,21.61
2022-12-19T22:38:07.037Z,22.08
2022-12-19T22:40:55.646Z,22.54
2022-12-19T22:43:44.687Z,22.51
2022-12-19T22:46:34.839Z,22.67
2022-12-19T22:49:23.468Z,22.82
2022-12-19T22:52:12.128Z,23.15
2022-12-19T22:55:02.060Z,23.29
2022-12-19T22:57:50.699Z,23.22
2022-12-19T23:00:39.417Z,23.48
2022-12-19T23:03:28.303Z,23.58
2022-12-19T23:06:17.633Z,23.58
2022-12-19T23:09:07.295Z,23.47
2022-12-19T23:11:57.544Z,23.49
2022-12-19T23:14:46.176Z,23.55
2022-12-19T23:17:34.836Z,23.66
2022-12-19T23:20:23.525Z,23.74
2022-12-19T23:23:12.411Z,23.76
2022-12-19T23:26:01.112Z,23.75
2022-12-19T23:28:54.618Z,23.84
2022-12-19T23:31:45.066Z,23.80
2022-12-19T23:34:33.922Z,23.81
2022-12-19T23:37:22.501Z,23.80
2022-12-19T23:40:12.248Z,23.75
2022-12-19T23:43:00.968Z,23.81
2022-12-19T23:45:51.145Z,23.73
2022-12-19T23:48:39.889Z,23.72
2022-12-19T23:51:29.044Z,23.78
2022-12-19T23:54:17.823Z,23.83
2022-12-19T23:57:06.576Z,23.67
2022-12-19T23:59:55.208Z,23.78
